Randolph Air Force Base
KRND : now visible

Airfield :











YOU CAN JOIN US ON...

 
LOGIN :

Register | Disclaimer

   EN    FR    IT 

 









Legend :    VFR   Marginal VFR   IFR   Intensive IFR   Very Intensive IFR
Visi :
Ceiling :
>= 8 km
>= 3000ft
5 to 8 km
1000 to 3000 ft
1500m to 5 km
500 to 1000 ft
800 to 1500m
200 to 500 ft
< 800m
< 200 ft
Symbols :   Thunderstorms  Fog  Heavy snow  Heavy precipitations  Wind > 20 kt






- Airport Elevation : 761 ft


KRND - Randolph Air Force Base

CURRENT METAR :
  • 172056Z AUTO 15008KT 10SM BKN030 BKN150 26/20 A2979 RMK AO2 SLP082 T02590195 57031 $

EXPIRED METARs :
  • 172046Z AUTO 14008KT 10SM BKN028 BKN150 26/19 A2979 RMK AO2 CIG 028V150 SLP082 $
  • 172026Z AUTO 15009KT 10SM SCT025 BKN150 25/20 A2980 RMK AO2 SLP085 $
  • 172006Z AUTO 15008KT 10SM BKN025 BKN160 25/19 A2981 RMK AO2 CIG 025V160 SLP089 $
  • 171956Z AUTO 20009KT 10SM SCT026 BKN160 25/19 A2981 RMK AO2 SLP089 T02470193 $
  • 171946Z AUTO 16009KT 10SM BKN025 BKN160 25/20 A2982 RMK AO2 CIG 025V150 CIG 021 RWY15L SLP092 $
  • 171931Z AUTO 21009KT 10SM BKN026 BKN160 24/19 A2983 RMK AO2 CIG 026V160 CIG 019 RWY15L CIG 025 RWY15R SLP096 $
  • 171911Z AUTO 19006KT 5SM HZ SCT019 BKN160 23/20 A2985 RMK AO2 SLP103 $
  • 171901Z AUTO 19009KT 5SM HZ SCT016 BKN027 BKN160 23/19 A2985 RMK AO2 CIG 014V027 CIG 017 RWY15L CIG 026 RWY15R SLP103 $
  • 171856Z AUTO 19008KT 5SM HZ BKN016 BKN022 BKN160 23/20 A2986 RMK AO2 SLP106 T02320195 $
  • 171846Z AUTO 22005KT 5SM HZ OVC014 23/19 A2986 RMK AO2 SLP106 $
  • 171836Z AUTO 20008KT 5SM HZ BKN013 OVC021 23/19 A2987 RMK AO2 BKN V OVC SLP110 $

Expired Forecast.



MET'MAP, your aeronautical weather chart ! - Copyright ORBIFLY December 2007 - Disclaimer

ORBIFLY MET'MAP TEAM :

Programming & Development : Alexandra Zaïnal
Concept & original design : Baudouin d'Aumeries
Assistance for programming : Marc-Olivier Méhu
Technical & hardware support : Manuel Goepfert

Contact : metmap@orbifly.com




SOURCES & CREDITS :

   NOAA       Earth
Advisory